ロメ の空港の天気 - METARとTAF

ロメ空港 ( DXXX / LFW ) - トーゴ ロメ
飛行場実況気象(Metar)
観測時間05/28 10:00 GMT (05/28 10:00 UTC)
風向・風速南西 4m/s
視程10km以上
天気現象
全天の4割程度の雲 雲底高度 400m
気温30℃
湿度75%
気圧1014hPa
METARDXXX 281000Z 22007KT 9999 SCT013 30/25 Q1014 NOSIG
過去の天気等 Google飛行場航空写真 Wunderground天気予報

過去48時間のMETAR

飛行場予報(TAF)
発表時間: 5/28 05:00 GMT (5/28 05:00 UTC)
予報対象時間: 28日6時 GMT ~ 29日12時 GMT
風向・風速不定 2m/s
視程10km以上
少しの雲 雲底高度 430m
28日8時 GMT ~ 28日10時 GMT に徐々に
風向・風速南南西 5m/s
28日22時 GMT ~ 28日24時 GMT に徐々に
風向・風速不定 2m/s
29日8時 GMT ~ 29日10時 GMT に徐々に
風向・風速南南西 5m/s
TAF DXXX 280500Z 2806/2912 VRB03KT 9999 FEW014
BECMG 2808/2810 20010KT
BECMG 2822/2824 VRB03KT
BECMG 2908/2910 20010KT